sensor_id;sensor_type;location;lat;lon;timestamp;pressure;altitude;pressure_sealevel;temperature;humidity
44920;BME280;30655;53.094;6.072;2022-12-07T00:00:38;101800.00;;;4.59;100.00
44920;BME280;30655;53.094;6.072;2022-12-07T00:06:40;101587.06;;;3.25;100.00
44920;BME280;30655;53.094;6.072;2022-12-07T00:12:42;101769.94;;;4.38;100.00
44920;BME280;30655;53.094;6.072;2022-12-07T00:15:51;101602.13;;;3.59;100.00
44920;BME280;30655;53.094;6.072;2022-12-07T00:18:46;101626.25;;;3.85;100.00
44920;BME280;30655;53.094;6.072;2022-12-07T00:21:40;101648.88;;;4.16;100.00
44920;BME280;30655;53.094;6.072;2022-12-07T00:24:44;101652.19;;;4.18;100.00
44920;BME280;30655;53.094;6.072;2022-12-07T00:27:24;101762.09;;;5.02;100.00
44920;BME280;30655;53.094;6.072;2022-12-07T00:30:09;101570.28;;;3.77;100.00
44920;BME280;30655;53.094;6.072;2022-12-07T00:32:55;101722.19;;;4.67;100.00
44920;BME280;30655;53.094;6.072;2022-12-07T00:35:26;101762.50;;;4.99;100.00
44920;BME280;30655;53.094;6.072;2022-12-07T00:38:04;101712.50;;;4.66;99.82
44920;BME280;30655;53.094;6.072;2022-12-07T00:43:30;101689.25;;;4.47;99.95
44920;BME280;30655;53.094;6.072;2022-12-07T00:46:03;101703.03;;;4.57;99.76
44920;BME280;30655;53.094;6.072;2022-12-07T00:48:49;101658.75;;;4.15;99.97
44920;BME280;30655;53.094;6.072;2022-12-07T00:51:39;101759.44;;;4.82;100.00
44920;BME280;30655;53.094;6.072;2022-12-07T00:54:18;101762.72;;;4.84;100.00
44920;BME280;30655;53.094;6.072;2022-12-07T00:56:57;101759.84;;;4.86;100.00
44920;BME280;30655;53.094;6.072;2022-12-07T00:59:32;101686.56;;;4.41;100.00
44920;BME280;30655;53.094;6.072;2022-12-07T01:02:12;101745.84;;;4.90;100.00
44920;BME280;30655;53.094;6.072;2022-12-07T01:04:50;101735.75;;;4.86;100.00
44920;BME280;30655;53.094;6.072;2022-12-07T01:07:30;101745.84;;;4.97;100.00
44920;BME280;30655;53.094;6.072;2022-12-07T01:10:09;101669.06;;;4.51;100.00
44920;BME280;30655;53.094;6.072;2022-12-07T01:12:41;101661.84;;;4.45;100.00
44920;BME280;30655;53.094;6.072;2022-12-07T01:15:31;101561.66;;;3.88;100.00
44920;BME280;30655;53.094;6.072;2022-12-07T01:18:15;101698.47;;;4.78;100.00
44920;BME280;30655;53.094;6.072;2022-12-07T01:21:07;101553.84;;;3.87;100.00
44920;BME280;30655;53.094;6.072;2022-12-07T01:23:50;101607.72;;;4.10;99.94
44920;BME280;30655;53.094;6.072;2022-12-07T01:26:21;101735.72;;;5.05;100.00
44920;BME280;30655;53.094;6.072;2022-12-07T01:28:51;101751.78;;;5.05;100.00
44920;BME280;30655;53.094;6.072;2022-12-07T01:31:29;101563.06;;;3.84;99.91
44920;BME280;30655;53.094;6.072;2022-12-07T01:34:02;101633.66;;;4.36;99.51
44920;BME280;30655;53.094;6.072;2022-12-07T01:36:33;101747.69;;;5.03;99.74
44920;BME280;30655;53.094;6.072;2022-12-07T01:39:23;101605.88;;;4.11;99.19
44920;BME280;30655;53.094;6.072;2022-12-07T01:41:58;101701.97;;;4.71;99.67
44920;BME280;30655;53.094;6.072;2022-12-07T01:47:36;101683.44;;;4.63;99.62
44920;BME280;30655;53.094;6.072;2022-12-07T01:53:08;101685.72;;;4.66;99.69
44920;BME280;30655;53.094;6.072;2022-12-07T01:55:40;101589.41;;;4.27;99.63
44920;BME280;30655;53.094;6.072;2022-12-07T01:58:37;101742.53;;;5.08;99.14
44920;BME280;30655;53.094;6.072;2022-12-07T02:01:15;101658.53;;;4.63;99.49
44920;BME280;30655;53.094;6.072;2022-12-07T02:03:55;101748.47;;;5.16;98.75
44920;BME280;30655;53.094;6.072;2022-12-07T02:07:01;101764.56;;;5.16;99.34
44920;BME280;30655;53.094;6.072;2022-12-07T02:13:44;101628.69;;;4.46;98.49
44920;BME280;30655;53.094;6.072;2022-12-07T02:17:11;101543.97;;;3.81;98.79
44920;BME280;30655;53.094;6.072;2022-12-07T02:20:24;101553.22;;;3.98;98.17
44920;BME280;30655;53.094;6.072;2022-12-07T02:29:36;101696.63;;;4.78;98.47
44920;BME280;30655;53.094;6.072;2022-12-07T02:32:42;101681.78;;;4.69;97.89
44920;BME280;30655;53.094;6.072;2022-12-07T02:44:22;101723.81;;;4.75;98.33
44920;BME280;30655;53.094;6.072;2022-12-07T02:47:14;101537.78;;;3.54;97.95
44920;BME280;30655;53.094;6.072;2022-12-07T02:49:49;101733.69;;;4.74;98.92
44920;BME280;30655;53.094;6.072;2022-12-07T02:52:18;101734.13;;;4.71;98.37
44920;BME280;30655;53.094;6.072;2022-12-07T02:54:52;101681.84;;;4.43;98.66
44920;BME280;30655;53.094;6.072;2022-12-07T02:57:38;101635.09;;;4.19;98.63
44920;BME280;30655;53.094;6.072;2022-12-07T03:00:11;101572.34;;;3.75;98.92
44920;BME280;30655;53.094;6.072;2022-12-07T03:02:57;101662.03;;;4.44;98.47
44920;BME280;30655;53.094;6.072;2022-12-07T03:05:58;101677.91;;;4.45;98.84
44920;BME280;30655;53.094;6.072;2022-12-07T03:08:36;101614.50;;;4.00;99.02
44920;BME280;30655;53.094;6.072;2022-12-07T03:11:25;101538.59;;;3.55;98.67
44920;BME280;30655;53.094;6.072;2022-12-07T03:14:00;101667.00;;;4.40;98.47
44920;BME280;30655;53.094;6.072;2022-12-07T03:16:46;101551.56;;;3.64;98.66
44920;BME280;30655;53.094;6.072;2022-12-07T03:19:33;101714.75;;;4.69;98.57
44920;BME280;30655;53.094;6.072;2022-12-07T03:22:12;101633.25;;;4.13;97.79
44920;BME280;30655;53.094;6.072;2022-12-07T03:24:47;101614.53;;;4.13;97.73
44920;BME280;30655;53.094;6.072;2022-12-07T03:27:25;101521.75;;;3.47;97.50
44920;BME280;30655;53.094;6.072;2022-12-07T03:30:20;101713.31;;;4.67;97.34
44920;BME280;30655;53.094;6.072;2022-12-07T03:33:25;101529.13;;;3.59;96.82
44920;BME280;30655;53.094;6.072;2022-12-07T03:36:37;101512.72;;;3.49;96.91
44920;BME280;30655;53.094;6.072;2022-12-07T03:40:13;101503.44;;;3.44;96.35
44920;BME280;30655;53.094;6.072;2022-12-07T03:42:53;101600.31;;;4.06;96.48
44920;BME280;30655;53.094;6.072;2022-12-07T03:48:49;101705.91;;;4.62;95.65
44920;BME280;30655;53.094;6.072;2022-12-07T03:51:33;101530.38;;;3.43;95.70
44920;BME280;30655;53.094;6.072;2022-12-07T03:54:13;101641.69;;;4.23;95.54
44920;BME280;30655;53.094;6.072;2022-12-07T03:56:53;101524.00;;;3.37;95.55
44920;BME280;30655;53.094;6.072;2022-12-07T03:59:39;101716.41;;;4.57;95.78
44920;BME280;30655;53.094;6.072;2022-12-07T04:02:21;101711.25;;;4.56;96.91
44920;BME280;30655;53.094;6.072;2022-12-07T04:05:04;101523.78;;;3.45;96.49
44920;BME280;30655;53.094;6.072;2022-12-07T04:07:32;101533.69;;;3.58;96.80
44920;BME280;30655;53.094;6.072;2022-12-07T04:10:13;101701.97;;;4.71;96.78
44920;BME280;30655;53.094;6.072;2022-12-07T04:12:57;101589.63;;;4.06;96.65
44920;BME280;30655;53.094;6.072;2022-12-07T04:15:51;101656.88;;;4.55;96.93
44920;BME280;30655;53.094;6.072;2022-12-07T04:18:26;101702.38;;;4.82;97.12
44920;BME280;30655;53.094;6.072;2022-12-07T04:21:42;101696.19;;;4.88;96.51
44920;BME280;30655;53.094;6.072;2022-12-07T04:24:12;101693.31;;;4.83;96.19
44920;BME280;30655;53.094;6.072;2022-12-07T04:26:50;101541.28;;;3.81;96.39
44920;BME280;30655;53.094;6.072;2022-12-07T04:29:45;101643.91;;;4.59;96.21
44920;BME280;30655;53.094;6.072;2022-12-07T04:32:23;101651.72;;;4.60;96.61
44920;BME280;30655;53.094;6.072;2022-12-07T04:35:02;101690.84;;;4.88;97.00
44920;BME280;30655;53.094;6.072;2022-12-07T04:37:42;101687.53;;;4.86;96.64
44920;BME280;30655;53.094;6.072;2022-12-07T04:40:35;101638.16;;;4.49;96.59
44920;BME280;30655;53.094;6.072;2022-12-07T04:43:27;101532.03;;;3.83;96.17
44920;BME280;30655;53.094;6.072;2022-12-07T04:46:27;101594.97;;;4.25;96.03
44920;BME280;30655;53.094;6.072;2022-12-07T04:49:09;101687.56;;;4.72;96.21
44920;BME280;30655;53.094;6.072;2022-12-07T04:52:10;101622.50;;;4.39;96.71
44920;BME280;30655;53.094;6.072;2022-12-07T04:54:53;101467.47;;;3.40;96.29
44920;BME280;30655;53.094;6.072;2022-12-07T04:57:38;101546.81;;;3.79;96.30
44920;BME280;30655;53.094;6.072;2022-12-07T05:00:21;101686.75;;;4.65;96.28
44920;BME280;30655;53.094;6.072;2022-12-07T05:09:20;101648.47;;;4.32;95.98
44920;BME280;30655;53.094;6.072;2022-12-07T05:11:57;101633.66;;;4.23;96.20
44920;BME280;30655;53.094;6.072;2022-12-07T05:14:50;101679.75;;;4.51;95.99
44920;BME280;30655;53.094;6.072;2022-12-07T05:17:45;101693.56;;;4.48;96.24
44920;BME280;30655;53.094;6.072;2022-12-07T05:20:31;101484.31;;;3.28;96.02
44920;BME280;30655;53.094;6.072;2022-12-07T05:23:08;101533.88;;;3.50;95.78
44920;BME280;30655;53.094;6.072;2022-12-07T05:28:51;101515.34;;;3.35;96.44
44920;BME280;30655;53.094;6.072;2022-12-07T05:31:18;101656.69;;;4.24;96.27
44920;BME280;30655;53.094;6.072;2022-12-07T05:37:02;101626.44;;;4.10;96.18
44920;BME280;30655;53.094;6.072;2022-12-07T05:39:44;101646.44;;;4.27;96.43
44920;BME280;30655;53.094;6.072;2022-12-07T05:42:29;101614.13;;;4.03;96.16
44920;BME280;30655;53.094;6.072;2022-12-07T05:45:15;101650.13;;;4.33;96.29
44920;BME280;30655;53.094;6.072;2022-12-07T05:47:52;101683.22;;;4.58;96.67
44920;BME280;30655;53.094;6.072;2022-12-07T05:54:03;101666.53;;;4.69;96.72
44920;BME280;30655;53.094;6.072;2022-12-07T05:56:42;101513.13;;;3.72;96.46
44920;BME280;30655;53.094;6.072;2022-12-07T05:59:25;101483.94;;;3.57;96.33
44920;BME280;30655;53.094;6.072;2022-12-07T06:02:02;101455.94;;;3.40;96.18
44920;BME280;30655;53.094;6.072;2022-12-07T06:07:43;101464.38;;;3.50;95.84
44920;BME280;30655;53.094;6.072;2022-12-07T06:10:22;101553.44;;;4.03;96.28
44920;BME280;30655;53.094;6.072;2022-12-07T06:12:56;101595.38;;;4.22;96.50
44920;BME280;30655;53.094;6.072;2022-12-07T06:15:33;101519.69;;;3.76;96.37
44920;BME280;30655;53.094;6.072;2022-12-07T06:18:19;101624.59;;;4.37;95.92
44920;BME280;30655;53.094;6.072;2022-12-07T06:21:14;101685.91;;;4.71;95.84
44920;BME280;30655;53.094;6.072;2022-12-07T06:24:07;101687.56;;;4.59;95.85
44920;BME280;30655;53.094;6.072;2022-12-07T06:29:47;101626.66;;;4.35;94.96
44920;BME280;30655;53.094;6.072;2022-12-07T06:32:31;101661.63;;;4.66;95.10
44920;BME280;30655;53.094;6.072;2022-12-07T06:35:10;101609.38;;;4.38;94.97
44920;BME280;30655;53.094;6.072;2022-12-07T06:37:37;101638.16;;;4.55;95.37
44920;BME280;30655;53.094;6.072;2022-12-07T06:40:06;101560.41;;;4.11;94.77
44920;BME280;30655;53.094;6.072;2022-12-07T06:42:33;101658.50;;;4.69;95.01
44920;BME280;30655;53.094;6.072;2022-12-07T06:45:01;101659.75;;;4.67;95.44
44920;BME280;30655;53.094;6.072;2022-12-07T06:47:32;101641.25;;;4.46;94.78
44920;BME280;30655;53.094;6.072;2022-12-07T06:50:08;101667.78;;;4.60;94.80
44920;BME280;30655;53.094;6.072;2022-12-07T06:52:35;101640.03;;;4.42;95.02
44920;BME280;30655;53.094;6.072;2022-12-07T06:55:02;101668.63;;;4.54;94.88
44920;BME280;30655;53.094;6.072;2022-12-07T06:57:29;101677.47;;;4.55;94.67
44920;BME280;30655;53.094;6.072;2022-12-07T06:59:56;101648.88;;;4.29;95.34
44920;BME280;30655;53.094;6.072;2022-12-07T07:02:25;101643.53;;;4.09;94.87
44920;BME280;30655;53.094;6.072;2022-12-07T07:04:53;101667.81;;;4.34;95.78
44920;BME280;30655;53.094;6.072;2022-12-07T07:07:20;101692.31;;;4.51;95.57
44920;BME280;30655;53.094;6.072;2022-12-07T07:09:49;101686.97;;;4.51;95.95
44920;BME280;30655;53.094;6.072;2022-12-07T07:12:16;101650.53;;;4.30;96.02
44920;BME280;30655;53.094;6.072;2022-12-07T07:14:43;101689.22;;;4.54;96.83
44920;BME280;30655;53.094;6.072;2022-12-07T07:17:10;101683.88;;;4.60;96.43
44920;BME280;30655;53.094;6.072;2022-12-07T07:19:38;101680.56;;;4.58;96.34
44920;BME280;30655;53.094;6.072;2022-12-07T07:22:05;101668.22;;;4.57;96.14
44920;BME280;30655;53.094;6.072;2022-12-07T07:24:32;101687.38;;;4.67;96.40
44920;BME280;30655;53.094;6.072;2022-12-07T07:26:59;101677.28;;;4.63;96.07
44920;BME280;30655;53.094;6.072;2022-12-07T07:29:26;101686.75;;;4.65;96.04
44920;BME280;30655;53.094;6.072;2022-12-07T07:31:53;101687.16;;;4.62;96.41
44920;BME280;30655;53.094;6.072;2022-12-07T07:34:27;101642.31;;;4.38;96.07
44920;BME280;30655;53.094;6.072;2022-12-07T07:36:56;101687.75;;;4.64;96.31
44920;BME280;30655;53.094;6.072;2022-12-07T07:39:24;101670.91;;;4.51;96.10
44920;BME280;30655;53.094;6.072;2022-12-07T07:41:51;101681.81;;;4.56;95.81
44920;BME280;30655;53.094;6.072;2022-12-07T07:44:18;101676.06;;;4.52;95.87
44920;BME280;30655;53.094;6.072;2022-12-07T07:46:44;101680.97;;;4.49;95.56
44920;BME280;30655;53.094;6.072;2022-12-07T07:49:11;101603.22;;;3.98;96.00
44920;BME280;30655;53.094;6.072;2022-12-07T07:51:38;101691.28;;;4.45;95.38
44920;BME280;30655;53.094;6.072;2022-12-07T07:54:10;101666.19;;;4.26;95.61
44920;BME280;30655;53.094;6.072;2022-12-07T07:56:38;101718.47;;;4.36;96.29
44920;BME280;30655;53.094;6.072;2022-12-07T07:59:05;101716.81;;;4.41;96.39
44920;BME280;30655;53.094;6.072;2022-12-07T08:01:35;101517.41;;;3.27;96.52
44920;BME280;30655;53.094;6.072;2022-12-07T08:04:14;101713.31;;;4.47;96.86
44920;BME280;30655;53.094;6.072;2022-12-07T08:06:59;101593.13;;;3.86;96.98
44920;BME280;30655;53.094;6.072;2022-12-07T08:10:02;101569.06;;;3.67;96.73
44920;BME280;30655;53.094;6.072;2022-12-07T08:15:42;101688.81;;;4.44;96.66
44920;BME280;30655;53.094;6.072;2022-12-07T08:18:33;101503.84;;;3.22;96.15
44920;BME280;30655;53.094;6.072;2022-12-07T08:21:13;101497.03;;;3.13;96.43
44920;BME280;30655;53.094;6.072;2022-12-07T08:23:59;101539.38;;;3.29;96.30
44920;BME280;30655;53.094;6.072;2022-12-07T08:26:34;101635.09;;;3.93;96.53
44920;BME280;30655;53.094;6.072;2022-12-07T08:29:28;101697.44;;;4.19;96.35
44920;BME280;30655;53.094;6.072;2022-12-07T08:32:28;101636.50;;;3.75;95.90
44920;BME280;30655;53.094;6.072;2022-12-07T08:35:08;101622.91;;;3.64;96.22
44920;BME280;30655;53.094;6.072;2022-12-07T08:37:38;101632.78;;;3.70;96.90
44920;BME280;30655;53.094;6.072;2022-12-07T08:40:06;101508.09;;;2.96;96.56
44920;BME280;30655;53.094;6.072;2022-12-07T08:42:36;101665.34;;;4.00;97.11
44920;BME280;30655;53.094;6.072;2022-12-07T08:45:06;101628.69;;;3.80;97.74
44920;BME280;30655;53.094;6.072;2022-12-07T08:47:42;101587.56;;;3.62;97.01
44920;BME280;30655;53.094;6.072;2022-12-07T08:50:11;101501.16;;;3.09;96.69
44920;BME280;30655;53.094;6.072;2022-12-07T08:52:50;101687.59;;;4.33;97.06
44920;BME280;30655;53.094;6.072;2022-12-07T08:55:18;101691.72;;;4.42;98.15
44920;BME280;30655;53.094;6.072;2022-12-07T08:57:57;101531.19;;;3.37;97.27
44920;BME280;30655;53.094;6.072;2022-12-07T09:00:29;101692.13;;;4.52;97.75
44920;BME280;30655;53.094;6.072;2022-12-07T09:03:15;101699.28;;;4.58;97.37
44920;BME280;30655;53.094;6.072;2022-12-07T09:05:46;101707.75;;;4.62;97.11
44920;BME280;30655;53.094;6.072;2022-12-07T09:08:19;101512.69;;;3.42;96.94
44920;BME280;30655;53.094;6.072;2022-12-07T09:10:47;101567.00;;;3.82;97.68
44920;BME280;30655;53.094;6.072;2022-12-07T09:13:29;101678.50;;;4.60;97.76
44920;BME280;30655;53.094;6.072;2022-12-07T09:15:56;101710.00;;;4.78;97.57
44920;BME280;30655;53.094;6.072;2022-12-07T09:18:25;101558.59;;;3.78;97.28
44920;BME280;30655;53.094;6.072;2022-12-07T09:21:07;101700.72;;;4.81;97.63
44920;BME280;30655;53.094;6.072;2022-12-07T09:26:32;101609.97;;;4.20;97.42
44920;BME280;30655;53.094;6.072;2022-12-07T09:29:26;101710.22;;;4.76;97.40
44920;BME280;30655;53.094;6.072;2022-12-07T09:32:07;101557.72;;;3.84;96.72
44920;BME280;30655;53.094;6.072;2022-12-07T09:34:41;101654.25;;;4.42;97.04
44920;BME280;30655;53.094;6.072;2022-12-07T09:37:12;101516.41;;;3.67;97.10
44920;BME280;30655;53.094;6.072;2022-12-07T09:39:41;101615.34;;;4.20;97.01
44920;BME280;30655;53.094;6.072;2022-12-07T09:42:47;101712.47;;;4.80;97.25
44920;BME280;30655;53.094;6.072;2022-12-07T09:45:44;101713.88;;;4.89;97.44
44920;BME280;30655;53.094;6.072;2022-12-07T09:48:40;101629.94;;;4.30;97.88
44920;BME280;30655;53.094;6.072;2022-12-07T09:52:18;101518.28;;;3.73;98.31
44920;BME280;30655;53.094;6.072;2022-12-07T09:58:28;101597.75;;;4.70;98.08
44920;BME280;30655;53.094;6.072;2022-12-07T10:01:28;101706.75;;;5.40;97.81
44920;BME280;30655;53.094;6.072;2022-12-07T10:04:33;101496.59;;;4.21;96.98
44920;BME280;30655;53.094;6.072;2022-12-07T10:07:16;101672.50;;;5.42;97.11
44920;BME280;30655;53.094;6.072;2022-12-07T10:10:00;101709.78;;;5.50;97.18
44920;BME280;30655;53.094;6.072;2022-12-07T10:12:56;101681.94;;;5.51;97.31
44920;BME280;30655;53.094;6.072;2022-12-07T10:18:56;101565.97;;;4.87;96.74
44920;BME280;30655;53.094;6.072;2022-12-07T10:21:45;101533.50;;;4.63;96.72
44920;BME280;30655;53.094;6.072;2022-12-07T10:25:34;101613.22;;;5.19;96.57
44920;BME280;30655;53.094;6.072;2022-12-07T10:31:16;101662.56;;;5.49;96.51
44920;BME280;30655;53.094;6.072;2022-12-07T10:34:20;101673.44;;;5.61;96.22
44920;BME280;30655;53.094;6.072;2022-12-07T10:36:47;101603.38;;;5.13;96.50
44920;BME280;30655;53.094;6.072;2022-12-07T10:39:18;101618.53;;;5.32;96.13
44920;BME280;30655;53.094;6.072;2022-12-07T10:41:56;101490.66;;;4.63;95.56
44920;BME280;30655;53.094;6.072;2022-12-07T10:44:30;101528.22;;;4.95;96.79
44920;BME280;30655;53.094;6.072;2022-12-07T10:47:08;101639.41;;;5.61;95.77
44920;BME280;30655;53.094;6.072;2022-12-07T10:53:02;101484.50;;;5.01;93.77
44920;BME280;30655;53.094;6.072;2022-12-07T10:55:48;101671.00;;;6.22;93.40
44920;BME280;30655;53.094;6.072;2022-12-07T10:58:31;101661.22;;;6.28;91.74
44920;BME280;30655;53.094;6.072;2022-12-07T11:01:08;101540.59;;;5.58;92.10
44920;BME280;30655;53.094;6.072;2022-12-07T11:04:01;101514.59;;;5.34;88.41
44920;BME280;30655;53.094;6.072;2022-12-07T11:06:42;101644.31;;;6.27;90.50
44920;BME280;30655;53.094;6.072;2022-12-07T11:09:57;101464.41;;;5.16;89.78
44920;BME280;30655;53.094;6.072;2022-12-07T11:12:56;101635.13;;;6.17;87.83
44920;BME280;30655;53.094;6.072;2022-12-07T11:15:36;101520.25;;;5.51;90.84
44920;BME280;30655;53.094;6.072;2022-12-07T11:18:12;101635.19;;;6.28;91.42
44920;BME280;30655;53.094;6.072;2022-12-07T11:20:44;101466.41;;;5.28;92.16
44920;BME280;30655;53.094;6.072;2022-12-07T11:23:22;101590.84;;;6.01;91.74
44920;BME280;30655;53.094;6.072;2022-12-07T11:26:12;101500.94;;;5.42;91.40
44920;BME280;30655;53.094;6.072;2022-12-07T11:29:02;101601.47;;;6.14;91.57
44920;BME280;30655;53.094;6.072;2022-12-07T11:31:41;101603.91;;;6.22;91.55
44920;BME280;30655;53.094;6.072;2022-12-07T11:34:24;101611.28;;;6.27;92.01
44920;BME280;30655;53.094;6.072;2022-12-07T11:37:07;101507.75;;;5.63;90.65
44920;BME280;30655;53.094;6.072;2022-12-07T11:39:44;101541.03;;;5.87;91.68
44920;BME280;30655;53.094;6.072;2022-12-07T11:45:52;101432.69;;;5.38;91.04
44920;BME280;30655;53.094;6.072;2022-12-07T11:51:59;101432.44;;;5.46;89.73
44920;BME280;30655;53.094;6.072;2022-12-07T11:54:35;101567.66;;;6.49;90.51
44920;BME280;30655;53.094;6.072;2022-12-07T11:57:28;101614.69;;;6.59;88.95
44920;BME280;30655;53.094;6.072;2022-12-07T12:01:01;101441.66;;;5.26;89.06
44920;BME280;30655;53.094;6.072;2022-12-07T12:07:15;101505.28;;;5.05;90.30
44920;BME280;30655;53.094;6.072;2022-12-07T12:10:19;101623.31;;;5.61;92.39
44920;BME280;30655;53.094;6.072;2022-12-07T12:19:30;101491.75;;;4.49;93.69
44920;BME280;30655;53.094;6.072;2022-12-07T12:22:15;101381.44;;;3.89;93.26
44920;BME280;30655;53.094;6.072;2022-12-07T12:24:45;101507.16;;;4.60;93.59
44920;BME280;30655;53.094;6.072;2022-12-07T12:27:23;101557.28;;;4.91;93.49
44920;BME280;30655;53.094;6.072;2022-12-07T12:29:53;101533.66;;;4.82;92.96
44920;BME280;30655;53.094;6.072;2022-12-07T12:32:36;101515.38;;;4.65;93.53
44920;BME280;30655;53.094;6.072;2022-12-07T12:35:28;101452.09;;;4.33;93.53
44920;BME280;30655;53.094;6.072;2022-12-07T12:38:27;101522.28;;;4.93;93.12
44920;BME280;30655;53.094;6.072;2022-12-07T12:40:55;101569.19;;;5.40;93.81
44920;BME280;30655;53.094;6.072;2022-12-07T12:43:50;101537.78;;;5.15;94.59
44920;BME280;30655;53.094;6.072;2022-12-07T12:46:49;101512.00;;;5.21;94.57
44920;BME280;30655;53.094;6.072;2022-12-07T12:49:56;101536.06;;;5.59;94.43
44920;BME280;30655;53.094;6.072;2022-12-07T12:59:42;101357.63;;;4.89;93.43
44920;BME280;30655;53.094;6.072;2022-12-07T13:02:59;101531.38;;;6.04;93.38
44920;BME280;30655;53.094;6.072;2022-12-07T13:05:38;101526.25;;;6.02;93.24
44920;BME280;30655;53.094;6.072;2022-12-07T13:08:13;101399.00;;;5.24;92.94
44920;BME280;30655;53.094;6.072;2022-12-07T13:10:47;101396.38;;;5.17;93.05
44920;BME280;30655;53.094;6.072;2022-12-07T13:13:40;101528.63;;;6.11;92.74
44920;BME280;30655;53.094;6.072;2022-12-07T13:16:39;101532.56;;;6.08;93.35
44920;BME280;30655;53.094;6.072;2022-12-07T13:19:27;101527.19;;;6.08;93.07
44920;BME280;30655;53.094;6.072;2022-12-07T13:22:40;101528.03;;;6.09;93.33
44920;BME280;30655;53.094;6.072;2022-12-07T13:25:11;101517.78;;;5.99;92.92
44920;BME280;30655;53.094;6.072;2022-12-07T13:27:40;101521.50;;;5.98;92.65
44920;BME280;30655;53.094;6.072;2022-12-07T13:30:14;101516.75;;;6.00;92.82
44920;BME280;30655;53.094;6.072;2022-12-07T13:32:43;101525.19;;;6.03;92.47
44920;BME280;30655;53.094;6.072;2022-12-07T13:35:31;101502.41;;;5.88;92.93
44920;BME280;30655;53.094;6.072;2022-12-07T13:38:02;101490.25;;;5.85;93.25
44920;BME280;30655;53.094;6.072;2022-12-07T13:40:30;101505.88;;;5.95;92.77
44920;BME280;30655;53.094;6.072;2022-12-07T13:42:58;101507.50;;;5.96;92.94
44920;BME280;30655;53.094;6.072;2022-12-07T13:45:30;101497.38;;;5.98;93.47
44920;BME280;30655;53.094;6.072;2022-12-07T13:47:59;101493.94;;;5.91;92.92
44920;BME280;30655;53.094;6.072;2022-12-07T13:50:31;101497.66;;;5.90;92.51
44920;BME280;30655;53.094;6.072;2022-12-07T13:53:00;101498.47;;;5.90;92.38
44920;BME280;30655;53.094;6.072;2022-12-07T13:55:35;101454.19;;;5.56;92.25
44920;BME280;30655;53.094;6.072;2022-12-07T13:58:03;101500.97;;;5.85;92.43
44920;BME280;30655;53.094;6.072;2022-12-07T14:00:30;101506.19;;;5.80;92.06
44920;BME280;30655;53.094;6.072;2022-12-07T14:03:00;101494.97;;;5.65;92.25
44920;BME280;30655;53.094;6.072;2022-12-07T14:05:29;101477.78;;;5.48;91.77
44920;BME280;30655;53.094;6.072;2022-12-07T14:07:58;101501.59;;;5.62;91.84
44920;BME280;30655;53.094;6.072;2022-12-07T14:13:59;101505.34;;;5.55;91.61
44920;BME280;30655;53.094;6.072;2022-12-07T14:17:11;101480.91;;;5.45;91.99
44920;BME280;30655;53.094;6.072;2022-12-07T14:19:56;101481.94;;;5.44;91.44
44920;BME280;30655;53.094;6.072;2022-12-07T14:22:37;101409.31;;;4.96;91.26
44920;BME280;30655;53.094;6.072;2022-12-07T14:25:50;101296.78;;;4.15;91.70
44920;BME280;30655;53.094;6.072;2022-12-07T14:28:39;101482.84;;;5.31;91.60
44920;BME280;30655;53.094;6.072;2022-12-07T14:34:14;101453.19;;;5.01;91.82
44920;BME280;30655;53.094;6.072;2022-12-07T14:40:24;101298.31;;;3.98;91.07
44920;BME280;30655;53.094;6.072;2022-12-07T14:43:17;101470.00;;;5.08;91.38
44920;BME280;30655;53.094;6.072;2022-12-07T14:46:24;101323.97;;;4.12;92.10
44920;BME280;30655;53.094;6.072;2022-12-07T14:48:53;101458.56;;;4.95;92.34
44920;BME280;30655;53.094;6.072;2022-12-07T14:51:41;101346.03;;;4.39;92.21
44920;BME280;30655;53.094;6.072;2022-12-07T14:57:58;101278.97;;;3.96;91.44
44920;BME280;30655;53.094;6.072;2022-12-07T15:01:21;101478.19;;;5.20;92.08
44920;BME280;30655;53.094;6.072;2022-12-07T15:03:26;101436.13;;;4.89;91.76
44920;BME280;30655;53.094;6.072;2022-12-07T15:06:19;101394.84;;;4.72;91.78
44920;BME280;30655;53.094;6.072;2022-12-07T15:08:48;101342.16;;;4.34;91.72
44920;BME280;30655;53.094;6.072;2022-12-07T15:11:18;101289.41;;;4.04;91.73
44920;BME280;30655;53.094;6.072;2022-12-07T15:13:50;101357.72;;;4.44;91.72
44920;BME280;30655;53.094;6.072;2022-12-07T15:16:20;101428.53;;;4.86;91.59
44920;BME280;30655;53.094;6.072;2022-12-07T15:18:59;101288.84;;;3.95;91.93
44920;BME280;30655;53.094;6.072;2022-12-07T15:21:47;101470.63;;;5.10;92.23
44920;BME280;30655;53.094;6.072;2022-12-07T15:24:14;101384.00;;;4.60;92.05
44920;BME280;30655;53.094;6.072;2022-12-07T15:26:41;101322.53;;;4.09;92.09
44920;BME280;30655;53.094;6.072;2022-12-07T15:29:11;101384.03;;;4.54;91.74
44920;BME280;30655;53.094;6.072;2022-12-07T15:32:13;101416.09;;;4.67;92.19
44920;BME280;30655;53.094;6.072;2022-12-07T15:34:45;101283.56;;;3.82;91.82
44920;BME280;30655;53.094;6.072;2022-12-07T15:37:22;101472.97;;;5.00;92.35
44920;BME280;30655;53.094;6.072;2022-12-07T15:40:01;101356.59;;;4.27;92.26
44920;BME280;30655;53.094;6.072;2022-12-07T15:42:42;101281.94;;;3.74;92.42
44920;BME280;30655;53.094;6.072;2022-12-07T15:45:23;101456.56;;;4.84;92.40
44920;BME280;30655;53.094;6.072;2022-12-07T15:48:02;101256.13;;;3.55;92.45
44920;BME280;30655;53.094;6.072;2022-12-07T15:51:00;101455.19;;;4.74;92.66
44920;BME280;30655;53.094;6.072;2022-12-07T15:53:31;101375.94;;;4.29;92.80
44920;BME280;30655;53.094;6.072;2022-12-07T15:56:08;101307.63;;;3.82;93.05
44920;BME280;30655;53.094;6.072;2022-12-07T15:58:35;101393.16;;;4.46;92.86
44920;BME280;30655;53.094;6.072;2022-12-07T16:01:12;101333.19;;;4.16;92.72
44920;BME280;30655;53.094;6.072;2022-12-07T16:03:40;101421.84;;;4.70;93.55
44920;BME280;30655;53.094;6.072;2022-12-07T16:06:10;101321.69;;;4.09;92.91
44920;BME280;30655;53.094;6.072;2022-12-07T16:08:44;101411.41;;;4.62;93.78
44920;BME280;30655;53.094;6.072;2022-12-07T16:11:15;101298.53;;;3.89;93.04